Date,TemperatureHighF,TemperatureAvgF,TemperatureLowF,DewpointHighF,DewpointAvgF,DewpointLowF,HumidityHigh,HumidityAvg,HumidityLow,PressureMaxIn,PressureMinIn,WindSpeedMaxMPH,WindSpeedAvgMPH,GustSpeedMaxMPH,PrecipitationSumIn
2013-1-1,18,7,-2,6,0,-6,84,73,56,0.00,40.00,7,4,12,0.00
2013-1-2,31,20,6,29,16,1,94,85,74,0.00,40.00,13,6,17,0.09
2013-1-3,31,20,9,28,16,7,91,81,66,0.00,40.00,19,9,27,0.00
2013-1-4,37,24,12,23,18,10,94,78,54,0.00,40.00,9,5,16,0.00
2013-1-5,39,29,18,33,24,17,97,82,69,0.00,40.00,22,9,30,0.00
2013-1-6,31,22,15,20,16,9,87,76,61,0.00,40.00,21,7,31,0.00
2013-1-7,46,34,26,29,24,19,97,68,50,0.00,40.00,17,6,32,0.00
2013-1-8,47,34,22,32,28,22,99,81,54,0.00,40.00,15,6,21,0.00
2013-1-9,48,37,29,34,30,27,92,78,50,0.00,40.00,14,5,21,0.00
2013-1-10,40,35,29,38,31,25,100,87,61,0.00,40.00,10,5,16,2.35
2013-1-11,53,45,35,48,42,35,100,89,60,0.00,40.00,19,8,30,0.00
2013-1-12,52,23,13,39,14,4,90,68,60,0.00,40.00,27,13,36,0.00
2013-1-13,20,13,7,9,4,1,74,66,58,0.00,40.00,16,10,24,0.00
2013-1-14,30,17,5,13,7,1,85,64,40,0.00,40.00,10,4,16,0.00
2013-1-15,35,23,13,15,11,8,84,63,38,0.00,40.00,12,4,17,0.00
2013-1-16,49,34,23,33,24,11,92,66,51,0.00,40.00,17,11,23,0.00
2013-1-17,40,27,16,28,18,11,94,72,37,0.00,40.00,14,4,19,0.00
2013-1-18,55,41,23,32,29,21,96,63,39,0.00,40.00,22,10,41,0.00
2013-1-19,53,40,18,32,28,7,80,62,41,0.00,40.00,24,13,40,0.00
2013-1-20,18,13,9,10,6,2,88,74,62,0.00,40.00,16,8,22,0.95
2013-1-21,11,5,-2,4,-1,-9,82,73,65,0.00,40.00,21,12,32,0.00
2013-1-22,18,11,5,5,2,-1,79,66,55,0.00,40.00,8,4,14,0.00
2013-1-23,29,17,5,19,9,-3,85,71,63,0.00,40.00,20,10,29,0.00
2013-1-24,20,11,3,6,-1,-5,70,58,45,0.00,40.00,15,8,21,0.00
2013-1-25,41,26,13,25,16,6,89,68,53,0.00,40.00,19,8,26,0.00
2013-1-26,39,23,8,17,10,3,80,60,40,0.00,40.00,11,6,17,0.00
2013-1-27,39,35,31,38,32,16,99,88,53,0.00,40.00,10,5,17,4.82
2013-1-28,55,38,35,53,38,35,99,99,99,0.00,40.00,10,5,15,0.00
2013-1-29,60,39,31,59,38,30,99,95,90,0.00,40.00,19,10,30,0.74
2013-1-30,31,23,15,30,18,7,97,81,65,0.00,40.00,27,18,39,4.27
2013-1-31,15,4,-1,7,-5,-10,69,63,59,0.00,40.00,23,16,35,0.06
2013-2-1,25,8,-7,15,-2,-14,72,63,53,0.00,40.00,13,7,25,0.00
2013-2-2,34,23,17,29,15,7,93,72,55,0.00,40.00,22,1,34,1.94
2013-2-3,35,27,18,28,16,11,85,64,42,0.00,40.00,24,9,37,0.00
2013-2-4,36,25,17,26,20,15,92,80,65,0.00,40.00,18,8,24,0.00
2013-2-5,45,33,23,33,27,20,96,79,57,0.00,40.00,18,8,27,0.00
2013-2-6,47,36,25,34,30,24,99,81,49,0.00,40.00,11,5,19,0.00
2013-2-7,40,33,28,39,32,26,99,94,79,0.00,40.00,19,10,26,10.81
2013-2-8,28,27,24,26,24,21,92,88,83,0.00,40.00,14,6,19,0.00
2013-2-9,40,32,27,33,29,25,97,87,71,0.00,40.00,12,8,20,2.08
2013-2-10,51,38,32,46,34,22,99,87,57,0.00,40.00,32,14,43,1.05
2013-2-11,33,30,28,23,22,20,76,69,63,0.00,40.00,29,17,42,0.00
2013-2-12,44,33,21,26,23,18,93,69,46,0.00,40.00,12,6,20,0.00
2013-2-13,51,38,25,30,27,23,91,66,40,0.00,40.00,14,7,22,0.00
2013-2-14,42,36,23,31,28,16,84,72,52,0.00,40.00,21,13,33,0.01
2013-2-15,29,22,16,16,13,9,85,67,53,0.00,40.00,15,2,24,0.00
2013-2-16,38,24,10,20,15,9,96,72,41,0.00,40.00,9,4,15,0.00
2013-2-17,50,35,21,27,24,19,93,66,39,0.00,40.00,13,7,23,0.00
2013-2-18,41,31,17,35,24,9,96,77,65,0.00,40.00,29,13,41,0.00
2013-2-19,23,16,9,10,5,1,74,63,45,0.00,40.00,24,16,37,0.00
2013-2-20,22,13,0,9,2,-4,83,64,46,0.00,40.00,13,6,19,0.00
2013-2-21,25,22,18,24,17,9,99,81,62,0.00,40.00,19,12,30,2.92
2013-2-22,27,24,21,24,20,15,99,86,72,0.00,40.00,16,8,21,5.21
2013-2-23,34,22,8,20,15,7,95,76,55,0.00,40.00,10,4,16,0.00
2013-2-24,45,28,10,29,20,9,97,76,45,0.00,40.00,6,2,8,0.00
2013-2-25,39,33,27,31,28,26,97,83,60,0.00,40.00,11,5,16,0.00
2013-2-26,33,31,28,32,30,27,99,95,86,0.00,40.00,24,12,29,13.21
2013-2-27,32,28,25,28,25,21,99,88,76,0.00,40.00,18,12,28,3.31
2013-2-28,33,27,23,26,23,20,90,84,68,0.00,40.00,16,11,24,2.20
2013-3-1,30,26,24,24,21,16,94,81,68,0.00,40.00,12,9,18,3.27
2013-3-2,36,25,17,20,18,15,89,73,47,0.00,40.00,12,5,17,0.00
2013-3-3,36,27,17,25,19,15,91,72,52,0.00,40.00,15,8,22,2.08
2013-3-4,42,34,29,33,29,25,99,83,63,0.00,40.00,16,9,26,3.82
2013-3-5,32,29,26,32,24,18,99,82,68,0.00,40.00,23,13,33,5.91
2013-3-6,36,26,19,23,20,17,94,78,53,0.00,40.00,15,7,22,0.00
2013-3-7,38,26,15,24,21,15,99,81,55,0.00,40.00,15,6,20,0.00
2013-3-8,45,35,24,36,29,23,97,81,62,0.00,40.00,12,7,20,6.36
2013-3-9,43,40,37,43,39,36,99,98,93,0.00,40.00,12,6,17,9.06
2013-3-10,39,34,29,39,34,28,99,99,98,0.00,40.00,20,12,29,10.28
2013-3-11,29,26,22,29,22,17,98,84,68,0.00,40.00,17,12,26,2.46
2013-3-12,34,26,20,25,20,15,86,76,64,0.00,40.00,27,13,37,1.48
2013-3-13,36,26,16,20,16,12,82,68,46,0.00,40.00,16,6,24,0.00
2013-3-14,51,38,26,35,29,19,96,70,49,0.00,40.00,12,5,16,0.57
2013-3-15,60,41,28,44,37,28,99,86,51,0.00,40.00,16,4,22,0.00
2013-3-16,36,33,27,36,27,20,99,80,62,0.00,40.00,22,12,28,0.00
2013-3-17,41,31,22,29,22,18,82,68,51,0.00,40.00,17,11,24,0.00
2013-3-18,34,30,24,34,23,12,99,75,53,0.00,40.00,26,12,36,4.55
2013-3-19,41,27,18,23,13,8,80,56,34,0.00,40.00,16,9,25,0.00
2013-3-20,28,22,15,22,11,5,84,62,48,0.00,40.00,19,12,32,0.56
2013-3-21,37,23,11,18,12,6,86,63,38,0.00,40.00,9,5,15,0.00
2013-3-22,38,29,19,26,18,16,92,67,43,0.00,40.00,9,4,13,0.44
2013-3-23,36,31,27,30,24,18,96,75,48,0.00,40.00,16,7,22,1.91
2013-3-24,31,29,26,30,27,24,99,93,76,0.00,40.00,20,12,27,4.65
2013-3-25,35,30,26,29,24,20,99,79,58,0.00,40.00,19,11,25,0.14
2013-3-26,38,30,20,26,20,17,87,67,47,0.00,40.00,14,6,21,0.00
2013-3-27,48,34,20,27,24,19,97,67,38,0.00,40.00,9,3,14,0.00
2013-3-28,59,42,27,34,30,25,97,64,36,0.00,40.00,13,5,16,0.00
2013-3-29,65,48,30,36,32,30,99,60,28,0.00,40.00,9,5,16,0.00
2013-3-30,60,51,45,51,42,-100,97,75,55,0.00,40.00,16,6,21,0.99
2013-3-31,52,43,31,42,33,22,99,71,32,0.00,40.00,25,11,32,3.25
2013-4-1,40,31,22,25,18,14,80,59,38,0.00,40.00,16,10,25,0.00
2013-4-2,48,33,17,28,19,16,98,62,31,0.00,40.00,14,5,22,0.00
2013-4-3,54,38,27,26,23,20,93,58,32,0.00,40.00,13,4,17,0.00
2013-4-4,63,46,31,38,29,21,66,51,35,0.00,40.00,13,6,22,0.00
2013-4-5,62,48,31,38,32,29,91,58,32,0.00,40.00,13,7,24,0.00
2013-4-6,69,58,49,49,44,38,79,58,47,0.00,40.00,23,10,29,0.00
2013-4-7,71,51,34,44,40,34,99,70,37,0.00,40.00,17,7,21,0.69
2013-4-8,74,61,46,57,52,44,99,73,42,0.00,40.00,10,4,18,0.69
2013-4-9,63,52,42,60,51,42,99,98,85,0.00,40.00,17,10,26,4.45
2013-4-10,42,40,39,42,39,38,99,97,92,0.00,40.00,22,9,36,21.95
2013-4-11,40,38,35,40,36,32,99,94,84,0.00,40.00,17,7,22,7.54
2013-4-12,40,36,34,35,29,24,94,76,57,0.00,40.00,18,13,27,0.00
2013-4-13,52,42,29,35,28,21,80,58,43,0.00,40.00,16,8,23,0.00
2013-4-14,69,53,43,56,45,35,94,75,51,0.00,40.00,21,12,31,8.55
2013-4-15,49,41,37,42,33,26,90,72,57,0.00,40.00,19,7,26,0.64
2013-4-16,50,41,30,34,32,29,97,71,51,0.00,40.00,14,8,22,0.00
2013-4-17,46,43,41,44,40,32,99,90,58,0.00,40.00,24,11,41,24.17
2013-4-18,41,37,34,41,35,28,99,92,77,0.00,40.00,26,15,34,15.65
2013-4-19,45,36,30,28,24,20,80,61,40,0.00,40.00,27,18,41,0.00
2013-4-20,50,38,26,26,23,18,90,58,31,0.00,40.00,13,6,20,0.00
2013-4-21,68,54,41,43,35,26,67,50,30,0.00,40.00,21,10,34,0.54
2013-4-22,66,54,36,51,45,35,98,73,45,0.00,40.00,19,9,30,7.39
2013-4-23,43,36,32,36,28,24,97,75,51,0.00,40.00,19,14,29,2.58
2013-4-24,55,41,26,39,26,22,89,59,31,0.00,40.00,19,8,30,0.00
2013-4-25,65,48,31,35,31,29,93,56,30,0.00,40.00,14,7,22,0.00
2013-4-26,66,57,49,50,45,35,92,64,53,0.00,40.00,20,9,29,0.00
2013-4-27,69,56,42,49,46,42,99,71,42,0.00,40.00,8,4,14,0.00
2013-4-28,76,62,43,52,48,43,99,64,38,0.00,40.00,13,6,19,0.00
2013-4-29,84,68,57,63,56,52,88,67,41,0.00,40.00,11,5,16,0.00
2013-4-30,84,74,58,63,55,43,72,52,43,0.00,40.00,21,12,37,0.00
2013-5-1,58,48,39,50,42,37,99,79,61,0.00,40.00,23,17,35,1.13
2013-5-2,39,35,33,39,34,33,99,98,91,0.00,40.00,21,13,31,10.06
2013-5-3,35,34,33,34,33,33,99,97,92,0.00,40.00,17,12,25,6.16
2013-5-4,47,40,34,47,40,33,99,99,97,0.00,40.00,15,10,24,5.43
2013-5-5,56,49,42,52,47,42,99,94,84,0.00,40.00,13,9,19,0.00
2013-5-6,74,59,46,54,49,46,99,74,39,0.00,40.00,11,6,17,0.00
2013-5-7,78,63,47,56,49,44,98,64,32,0.00,40.00,7,2,14,0.00
2013-5-8,70,60,49,62,55,48,97,86,55,0.00,40.00,10,4,15,2.49
2013-5-9,71,61,54,62,58,53,99,90,59,0.00,40.00,19,7,29,3.36
2013-5-10,68,55,48,53,46,-100,99,77,43,0.00,40.00,16,8,24,0.00
2013-5-11,58,52,42,47,31,-100,85,48,28,0.00,40.00,27,13,38,0.00
2013-5-12,62,49,36,32,27,24,67,44,26,0.00,40.00,14,6,22,0.00
2013-5-13,78,60,37,52,42,32,87,54,33,0.00,40.00,15,6,24,0.00
2013-5-14,95,80,60,65,57,51,84,50,28,0.00,40.00,18,8,28,0.00
2013-5-15,83,72,59,54,49,45,71,44,29,0.00,40.00,17,7,24,0.00
2013-5-16,83,66,60,69,41,-100,88,72,59,0.00,40.00,12,4,17,0.00
2013-5-17,83,72,63,65,58,-100,97,73,45,0.00,40.00,10,4,17,0.00
2013-5-18,85,73,59,65,62,58,99,71,47,0.00,40.00,11,4,18,0.00
2013-5-19,87,72,60,67,62,59,99,74,40,0.00,40.00,29,8,40,8.81
2013-5-20,78,66,59,65,60,56,99,80,52,0.00,40.00,16,7,28,0.00
2013-5-21,69,63,59,61,51,44,97,68,46,0.00,40.00,15,8,26,0.00
2013-5-22,61,57,53,58,53,48,99,88,69,0.00,40.00,15,10,21,0.04
2013-5-23,70,60,52,53,48,41,99,69,37,0.00,40.00,16,9,23,0.00
2013-5-24,72,60,45,51,47,42,95,63,42,0.00,40.00,11,6,22,0.00
2013-5-25,62,56,51,57,53,49,99,88,71,0.00,40.00,19,10,28,2.20
2013-5-26,63,57,52,63,56,51,99,96,90,0.00,40.00,21,10,33,3.91
2013-5-27,78,65,58,66,61,58,99,86,54,0.00,40.00,24,6,34,13.37
2013-5-28,81,70,61,68,65,60,98,83,55,0.00,40.00,11,4,14,3.68
2013-5-29,81,69,61,70,65,60,99,89,66,0.00,40.00,17,5,36,1.02
2013-5-30,73,68,63,68,63,60,96,85,74,0.00,40.00,14,7,28,3.10
2013-5-31,77,69,58,65,62,57,98,80,55,0.00,40.00,14,7,24,1.09
2013-6-1,67,62,56,65,56,49,97,82,73,0.00,40.00,19,10,30,0.00
2013-6-2,68,59,50,51,47,43,96,65,45,0.00,40.00,18,8,27,0.00
2013-6-3,73,60,44,54,48,43,99,68,42,0.00,40.00,12,4,18,0.00
2013-6-4,68,61,56,64,58,53,99,89,75,0.00,40.00,14,6,25,2.63
2013-6-5,71,64,56,63,59,52,98,84,56,0.00,40.00,10,5,15,0.00
2013-6-6,72,62,52,58,53,51,97,74,50,0.00,40.00,14,6,20,0.00
2013-6-7,72,60,51,58,52,47,98,76,44,0.00,40.00,9,4,12,0.00
2013-6-8,75,62,49,63,56,49,99,82,50,0.00,40.00,15,5,20,5.52
2013-6-9,70,64,61,64,62,58,98,91,68,0.00,40.00,14,6,22,4.96
2013-6-10,81,68,60,65,62,59,98,82,51,0.00,40.00,11,4,14,0.00
2013-6-11,86,74,62,73,68,61,98,82,61,0.00,40.00,11,4,15,0.00
2013-6-12,89,76,65,73,68,57,97,78,54,0.00,40.00,24,9,36,0.86
2013-6-13,84,72,61,65,58,55,89,65,39,0.00,40.00,17,6,25,0.00
2013-6-14,77,67,63,67,63,60,99,86,66,0.00,40.00,32,6,45,11.15
2013-6-15,82,73,63,72,66,60,97,81,62,0.00,40.00,17,5,24,1.50
2013-6-16,88,76,65,70,62,54,98,68,33,0.00,40.00,9,5,14,0.00
2013-6-17,88,76,60,64,58,53,98,58,33,0.00,40.00,13,5,21,0.00
2013-6-18,87,74,60,63,58,54,94,60,35,0.00,40.00,9,4,16,0.00
2013-6-19,85,74,63,67,64,61,98,73,46,0.00,40.00,8,3,14,0.00
2013-6-20,88,76,66,69,66,64,93,73,48,0.00,40.00,11,4,23,0.00
2013-6-22,92,85,77,76,73,68,77,66,56,0.00,40.00,12,6,23,1.37
2013-6-23,80,77,69,73,71,67,93,82,71,0.00,40.00,20,8,49,0.67
2013-6-24,80,74,67,74,69,65,98,85,71,0.00,40.00,18,6,22,0.96
2013-6-25,90,80,71,76,72,67,97,78,49,0.00,40.00,11,4,20,0.00
2013-6-26,90,82,73,78,72,64,98,74,43,0.00,40.00,19,6,24,0.00
2013-6-27,85,76,65,71,67,64,97,74,55,0.00,40.00,15,6,21,1.92
2013-6-28,85,78,69,65,59,53,80,55,35,0.00,40.00,22,12,35,0.00
2013-6-29,77,70,66,65,59,55,79,67,53,0.00,40.00,21,12,35,0.00
2013-6-30,80,68,58,59,54,46,97,64,36,0.00,40.00,15,7,21,0.00
2013-7-1,83,69,56,60,53,48,89,59,35,0.00,40.00,14,6,20,0.00
2013-7-2,85,68,54,65,56,54,99,72,35,0.00,40.00,9,3,14,0.00
2013-7-3,83,69,54,65,58,54,99,71,44,0.00,40.00,9,2,13,0.00
2013-7-4,86,74,58,62,59,57,97,63,39,0.00,40.00,10,4,17,0.00
2013-7-5,89,76,64,66,62,59,86,62,43,0.00,40.00,9,4,18,0.00
2013-7-6,91,77,69,69,65,63,81,67,48,0.00,40.00,13,4,24,0.00
2013-7-7,91,82,71,74,69,64,85,66,51,0.00,40.00,12,5,24,1.13
2013-7-8,88,80,74,78,71,-100,96,77,63,0.00,40.00,7,4,12,0.00
2013-7-9,94,82,74,78,75,69,97,80,53,0.00,40.00,13,4,18,1.63
2013-7-10,84,75,63,77,59,-100,97,62,37,0.00,40.00,12,6,19,0.00
2013-7-11,85,72,57,65,59,56,99,66,38,0.00,40.00,10,4,15,0.00
2013-7-12,87,74,62,64,61,59,93,65,42,0.00,40.00,10,4,19,0.00
2013-7-13,82,74,64,68,63,58,81,70,59,0.00,40.00,11,5,18,0.00
2013-7-14,86,76,63,66,64,62,96,68,44,0.00,40.00,12,5,22,0.00
2013-7-15,89,77,63,73,68,63,98,75,52,0.00,40.00,13,4,17,0.00
2013-7-16,94,83,70,74,70,67,98,69,45,0.00,40.00,6,2,10,0.00
2013-7-17,96,83,71,74,71,67,97,69,40,0.00,40.00,7,2,14,0.00
2013-7-18,94,83,73,72,70,67,94,67,42,0.00,40.00,13,5,21,0.00
2013-7-19,93,84,77,74,69,63,76,61,44,0.00,40.00,11,7,20,0.00
2013-7-20,90,79,61,68,58,-100,99,54,32,0.00,40.00,7,2,10,0.00
2013-7-21,82,72,62,72,67,62,98,85,58,0.00,40.00,9,3,16,1.28
2013-7-22,93,78,65,73,68,65,98,76,43,0.00,40.00,13,3,18,0.00
2013-7-23,78,68,63,67,62,57,98,82,53,0.00,40.00,14,5,20,0.00
2013-7-24,82,71,57,64,59,56,98,69,44,0.00,40.00,10,3,13,0.00
2013-7-25,86,73,60,67,63,59,97,72,48,0.00,40.00,10,4,21,0.00
2013-7-26,78,71,59,69,58,50,98,67,43,0.00,40.00,18,8,27,0.00
2013-7-27,72,62,51,54,49,44,98,67,40,0.00,40.00,14,7,23,0.00
2013-7-28,77,63,50,54,49,47,92,64,37,0.00,40.00,12,6,22,0.00
2013-7-29,73,64,50,62,56,50,99,76,52,0.00,40.00,9,-9,14,3.64
2013-7-30,72,67,63,69,66,62,98,95,85,0.00,40.00,7,4,12,2.34
2013-7-31,85,74,64,68,65,62,98,76,48,0.00,40.00,7,3,12,0.00
2013-8-1,89,74,59,67,62,54,98,71,32,0.00,40.00,6,2,10,0.00
2013-8-2,84,72,63,67,64,57,97,77,52,0.00,40.00,16,4,21,0.00
2013-8-3,80,70,61,63,58,53,97,68,41,0.00,40.00,9,4,12,0.00
2013-8-4,82,69,54,62,58,54,99,69,42,0.00,40.00,10,3,16,0.00
2013-8-5,85,72,65,73,67,61,97,85,60,0.00,40.00,10,3,17,0.00
2013-8-6,91,77,66,76,70,65,98,82,49,0.00,40.00,9,3,15,0.00
2013-8-7,83,75,67,70,65,60,98,74,48,0.00,40.00,15,6,20,0.00
2013-8-8,82,70,58,66,61,58,98,76,46,0.00,40.00,6,2,11,0.00
2013-8-9,83,72,62,68,63,55,98,74,44,0.00,40.00,11,4,16,0.00
2013-8-10,85,71,55,64,59,54,99,69,40,0.00,40.00,7,2,25,0.69
2013-8-11,87,74,62,66,63,60,95,69,45,0.00,40.00,9,4,17,1.25
2013-8-12,84,74,63,70,64,55,98,76,43,0.00,40.00,13,6,21,3.28
2013-9-14,80,64,45,50,41,-100,98,51,28,0.00,40.00,9,4,16,1.15
2013-9-15,69,65,62,64,56,50,97,71,52,0.00,40.00,16,9,22,1.69
2013-9-16,65,60,51,59,53,51,99,77,62,0.00,40.00,12,7,19,0.00
2013-9-17,67,62,55,66,62,55,99,97,92,0.00,40.00,8,5,13,0.00
2013-9-18,78,70,65,72,67,64,99,93,80,0.00,40.00,6,5,14,0.00
2013-9-19,86,78,73,72,70,67,90,77,57,0.00,40.00,17,8,44,0.00
2013-9-20,70,63,54,51,49,48,86,62,48,0.00,40.00,14,10,30,0.00
2013-10-18,50,45,38,40,34,28,96,66,43,0.00,40.00,16,8,22,0.00
2013-10-19,59,46,34,38,29,-100,95,58,31,0.00,40.00,17,8,28,1.29
2013-10-20,62,51,37,42,39,36,98,68,43,0.00,40.00,13,6,24,0.00
2013-10-21,51,44,35,37,31,27,89,61,42,0.00,40.00,17,8,24,0.00
2013-10-22,44,40,38,42,38,31,99,90,72,0.00,40.00,15,6,21,8.86
2013-10-23,41,37,32,38,35,30,99,91,75,0.00,40.00,9,5,15,7.67
2013-10-24,45,39,32,34,30,28,93,72,50,0.00,40.00,16,8,21,0.00
2013-10-25,57,43,25,30,28,25,98,61,35,0.00,40.00,16,8,24,0.00
2013-10-26,53,45,34,35,26,-100,81,53,42,0.00,40.00,21,10,28,0.00
2013-10-27,64,45,27,35,31,26,98,64,31,0.00,40.00,13,5,21,2.06
2013-10-28,55,44,35,39,31,-100,97,70,51,0.00,40.00,15,10,19,0.00
2013-10-29,55,47,40,53,44,36,99,88,72,0.00,40.00,15,8,21,5.89
2013-10-30,63,56,52,60,55,51,99,97,83,0.00,40.00,17,7,28,6.93
2013-10-31,50,46,41,50,42,39,99,88,72,0.00,40.00,13,7,19,0.00
2013-11-3,58,44,34,35,33,30,97,70,35,0.00,40.00,17,6,29,0.00
2013-11-4,55,51,47,47,43,36,91,77,55,0.00,40.00,10,6,21,3.25
2013-11-5,54,48,42,54,45,41,99,92,79,0.00,40.00,13,5,23,12.65
2013-11-6,45,37,31,39,32,26,99,83,47,0.00,40.00,17,11,27,1.93
2013-11-7,46,33,28,31,26,21,97,80,41,0.00,40.00,12,4,21,0.00
2013-11-8,62,47,28,35,30,24,84,55,33,0.00,40.00,17,8,29,0.00
2013-11-9,58,45,39,39,30,-100,76,61,43,0.00,40.00,16,8,26,0.00
2013-11-15,58,42,28,40,32,28,98,73,40,0.00,40.00,9,4,17,0.00
2013-11-16,68,52,44,55,42,-100,95,78,59,0.00,40.00,15,8,27,0.00
2013-11-17,52,47,42,47,42,36,99,83,64,0.00,40.00,16,9,21,4.60
2013-11-18,49,40,32,36,32,31,95,76,53,0.00,40.00,14,8,24,0.00
2013-11-19,57,41,30,33,30,27,97,70,33,0.00,40.00,17,7,27,0.00
2013-11-20,47,42,35,38,35,27,99,80,46,0.00,40.00,14,8,23,4.78
2013-11-21,37,30,24,37,30,23,100,96,90,0.00,40.00,16,9,26,1.37
2013-11-22,25,20,16,22,14,9,95,78,59,0.00,40.00,17,8,24,0.04
2013-11-23,20,12,2,11,1,-100,85,68,61,0.00,40.00,13,6,20,0.00
2013-11-24,28,16,2,11,5,-1,88,65,39,0.00,40.00,14,6,20,0.08
2013-11-25,38,30,26,28,20,10,88,66,50,0.00,40.00,15,9,21,0.00
2013-11-26,29,24,17,25,15,8,90,68,45,0.00,40.00,22,11,30,0.00
2013-11-27,29,20,9,14,10,7,89,65,47,0.00,40.00,11,6,20,0.00
2013-11-28,33,26,18,18,16,14,87,67,53,0.00,40.00,14,6,24,0.00
2013-11-29,42,30,11,26,20,10,96,70,45,0.00,40.00,11,5,17,0.00
2013-11-30,53,37,33,32,23,-100,85,64,45,0.00,40.00,9,6,14,0.00
2013-12-7,13,6,-4,-2,-10,-100,76,56,45,0.00,40.00,9,4,15,0.00
2013-12-8,18,15,12,15,8,-2,93,75,53,0.00,40.00,13,8,22,6.03
2013-12-9,10,4,-1,6,-2,-7,89,74,54,0.00,40.00,15,8,22,0.00
2013-12-10,22,19,11,14,8,0,71,63,49,0.00,40.00,18,8,26,0.00
2013-12-11,23,8,2,20,-1,-7,89,66,54,0.00,40.00,15,7,23,0.00
2013-12-12,30,20,4,16,11,-3,90,68,54,0.00,40.00,11,4,16,0.00
2013-12-13,31,24,12,24,20,11,94,83,69,0.00,40.00,12,5,17,0.00
2013-12-14,24,19,14,20,12,-100,93,82,75,0.00,40.00,17,10,23,0.00
2013-12-15,19,15,11,11,9,6,82,75,67,0.00,40.00,9,4,15,0.00
2013-12-16,35,24,13,26,20,9,95,84,70,0.00,40.00,9,6,16,0.00
2013-12-17,37,31,18,26,20,11,89,66,41,0.00,40.00,24,11,32,0.00
2013-12-18,49,35,19,31,23,12,76,63,48,0.00,40.00,16,6,31,0.00
2013-12-19,37,31,27,31,29,26,99,93,72,0.00,40.00,12,8,17,0.00
2013-12-20,26,22,19,26,21,18,99,97,92,0.00,40.00,9,5,12,0.00
2013-12-21,24,21,20,24,17,-100,97,90,86,0.00,40.00,9,4,13,1.19
2013-12-22,25,17,6,24,13,0,99,83,70,0.00,40.00,14,10,21,2.82
2013-12-23,8,2,-9,0,-9,-20,77,60,42,0.00,40.00,15,10,24,0.00
2013-12-24,18,4,-17,17,-4,-23,92,68,57,0.00,40.00,12,6,19,0.00
2013-12-25,36,24,19,29,20,12,97,83,63,0.00,40.00,16,8,24,0.00
2013-12-26,38,28,18,25,21,13,85,73,58,0.00,40.00,11,6,18,0.00
2013-12-27,48,33,17,28,24,16,94,71,43,0.00,40.00,11,6,20,0.00
2013-12-28,49,38,34,31,25,-100,86,63,48,0.00,40.00,17,9,29,0.00
2013-12-29,19,9,0,16,1,-9,87,70,43,0.00,40.00,26,14,37,0.17
2013-12-30,17,10,-1,15,5,-8,89,79,60,0.00,40.00,12,5,17,1.48
2013-12-31,16,11,7,10,7,4,87,83,75,0.00,40.00,14,8,18,0.00
2014-1-1,11,8,4,7,4,0,90,86,81,0.00,40.00,16,10,21,2.78
2014-1-2,7,0,-8,0,-4,-11,86,80,65,0.00,40.00,11,7,17,0.00